Time;durP1;ratioP1;P1;durP2;ratioP2;P2;SDS_P1;SDS_P2;PMS_P1;PMS_P2;Temp;Humidity;BMP_temperature;BMP_pressure;BME280_temperature;BME280_humidity;BME280_pressure;Samples;Min_cycle;Max_cycle;Signal;HPM_P1;HPM_P2
2022/06/10 00:00:33;;;;;;;6.18;2.53;;;;;;;11.40;98.99;101947.19;5033261;28;20040;-76
2022/06/10 00:02:59;;;;;;;7.28;2.38;;;;;;;11.31;98.86;101932.13;5033927;28;20033;-76
2022/06/10 00:05:28;;;;;;;7.38;2.55;;;;;;;11.35;98.81;101938.81;5016442;28;20082;-76
2022/06/10 00:07:53;;;;;;;8.52;2.13;;;;;;;11.35;98.74;101944.09;5048813;28;20051;-76
2022/06/10 00:10:22;;;;;;;5.60;2.00;;;;;;;11.31;99.94;101942.69;5024852;28;20022;-76
2022/06/10 00:12:49;;;;;;;9.20;2.53;;;;;;;11.20;99.09;101933.00;5048202;28;20484;-76
2022/06/10 00:15:15;;;;;;;5.40;2.30;;;;;;;11.23;99.78;101939.84;5051882;28;20020;-75
2022/06/10 00:17:40;;;;;;;5.63;2.80;;;;;;;11.20;99.40;101948.03;5050676;28;20538;-76
2022/06/10 00:20:08;;;;;;;5.10;1.85;;;;;;;11.18;99.34;101950.78;5049605;28;20395;-76
2022/06/10 00:22:33;;;;;;;8.57;2.47;;;;;;;11.15;99.27;101951.06;5032174;28;20040;-77
2022/06/10 00:24:58;;;;;;;9.65;2.85;;;;;;;11.16;100.00;101944.78;5032417;28;20074;-76
2022/06/10 00:27:25;;;;;;;9.05;2.70;;;;;;;11.14;100.00;101948.53;5048757;28;20032;-76
2022/06/10 00:29:50;;;;;;;6.70;2.42;;;;;;;11.12;99.52;101949.47;5048865;28;20029;-76
2022/06/10 00:32:17;;;;;;;5.93;2.35;;;;;;;11.08;99.95;101950.72;5050039;28;20436;-76
2022/06/10 00:34:43;;;;;;;6.43;2.10;;;;;;;11.00;100.00;101937.31;5048148;28;20484;-76
2022/06/10 00:37:08;;;;;;;8.52;2.70;;;;;;;11.01;99.74;101938.97;5032572;28;20086;-76
2022/06/10 00:39:34;;;;;;;5.82;2.00;;;;;;;11.00;100.00;101942.59;5031583;28;20037;-76
2022/06/10 00:42:00;;;;;;;6.63;2.00;;;;;;;11.00;100.00;101947.88;5049389;28;20468;-77
2022/06/10 00:44:48;;;;;;;6.72;2.58;;;;;;;10.94;100.00;101948.38;5050297;28;20370;-76
2022/06/10 00:47:20;;;;;;;6.25;2.53;;;;;;;10.90;100.00;101941.66;5049335;28;20519;-76
2022/06/10 00:49:51;;;;;;;8.57;2.20;;;;;;;10.86;100.00;101941.03;5049024;28;20021;-76
2022/06/10 00:52:27;;;;;;;9.25;2.40;;;;;;;10.70;100.00;101920.34;5042996;28;20112;-76
2022/06/10 00:54:53;;;;;;;6.38;2.30;;;;;;;10.76;100.00;101940.13;5030395;28;20028;-77
2022/06/10 00:57:23;;;;;;;5.38;2.47;;;;;;;10.75;100.00;101942.91;5060430;28;20360;-77
2022/06/10 00:59:55;;;;;;;5.65;2.78;;;;;;;10.66;100.00;101940.03;5068495;28;20028;-77
2022/06/10 01:02:31;;;;;;;5.30;2.42;;;;;;;10.64;100.00;101944.59;5069682;28;20013;-75
2022/06/10 01:04:58;;;;;;;7.70;2.70;;;;;;;10.53;100.00;101923.50;5067259;28;20032;-75
2022/06/10 01:07:29;;;;;;;8.35;2.72;;;;;;;10.63;100.00;101950.84;5051479;28;20032;-75
2022/06/10 01:09:56;;;;;;;3.75;2.03;;;;;;;10.51;100.00;101928.06;5068721;28;20052;-75
2022/06/10 01:12:36;;;;;;;9.82;2.42;;;;;;;10.59;100.00;101957.34;5068067;28;20569;-74
2022/06/10 01:15:17;;;;;;;6.82;2.40;;;;;;;10.57;100.00;101946.06;5069080;28;20029;-74
2022/06/10 01:17:56;;;;;;;9.93;2.53;;;;;;;10.59;100.00;101938.03;5067680;28;20025;-74
2022/06/10 01:20:50;;;;;;;7.68;2.72;;;;;;;10.57;100.00;101938.13;5067496;28;20388;-74
2022/06/10 01:23:36;;;;;;;9.98;2.75;;;;;;;10.55;100.00;101942.69;5056619;28;20052;-75
2022/06/10 01:26:28;;;;;;;7.07;2.38;;;;;;;10.55;100.00;101937.41;5054067;28;20043;-75
2022/06/10 01:29:41;;;;;;;4.95;2.35;;;;;;;10.42;100.00;101908.53;5067004;28;20020;-76
2022/06/10 01:32:22;;;;;;;11.07;3.03;;;;;;;10.52;100.00;101921.84;5068836;28;20587;-75
2022/06/10 01:35:00;;;;;;;4.07;2.30;;;;;;;10.50;100.00;101921.13;5068343;28;20066;-75
2022/06/10 01:37:35;;;;;;;8.45;3.42;;;;;;;10.57;100.00;101924.94;5068677;28;20485;-75
2022/06/10 01:40:39;;;;;;;7.55;2.45;;;;;;;10.64;100.00;101943.75;5068575;28;20052;-75
2022/06/10 01:43:22;;;;;;;8.57;2.70;;;;;;;10.46;100.00;101917.88;5055902;28;20036;-75
2022/06/10 01:45:52;;;;;;;6.03;2.40;;;;;;;10.63;100.00;101929.72;5067108;28;20371;-75
2022/06/10 01:48:37;;;;;;;9.07;2.83;;;;;;;10.61;100.00;101936.09;5069054;28;20017;-75
2022/06/10 01:51:27;;;;;;;6.03;2.38;;;;;;;10.59;100.00;101936.22;5066597;28;20055;-75
2022/06/10 01:54:04;;;;;;;8.50;2.78;;;;;;;10.27;100.00;101886.81;5067629;28;20035;-75
2022/06/10 01:56:37;;;;;;;9.65;2.75;;;;;;;10.55;100.00;101932.16;5057669;28;20053;-75
2022/06/10 01:59:31;;;;;;;8.50;2.28;;;;;;;10.55;100.00;101926.03;5046331;28;20071;-75
2022/06/10 02:02:07;;;;;;;9.85;2.20;;;;;;;10.52;100.00;101918.34;5042414;28;20439;-75
2022/06/10 02:04:56;;;;;;;8.02;2.60;;;;;;;10.58;100.00;101926.63;5045221;28;20067;-75
2022/06/10 02:07:33;;;;;;;4.32;2.85;;;;;;;10.63;100.00;101929.72;5048167;28;20452;-75
2022/06/10 02:10:05;;;;;;;8.32;2.55;;;;;;;10.52;100.00;101911.28;5044418;28;20028;-76
2022/06/10 02:12:39;;;;;;;6.30;2.55;;;;;;;10.55;100.00;101921.59;5030287;28;20036;-76
2022/06/10 02:15:14;;;;;;;4.60;2.58;;;;;;;10.45;100.00;101916.22;5030939;28;20031;-76
2022/06/10 02:17:44;;;;;;;4.80;2.30;;;;;;;10.50;100.00;101919.31;5048215;28;20108;-76
2022/06/10 02:20:16;;;;;;;8.83;2.40;;;;;;;10.49;100.00;101924.72;5050500;28;20118;-76
2022/06/10 02:22:45;;;;;;;3.10;2.08;;;;;;;10.48;100.00;101926.53;5048898;28;20271;-76
2022/06/10 02:25:33;;;;;;;6.82;2.53;;;;;;;10.57;100.00;101935.50;5051220;28;20051;-76
2022/06/10 02:28:03;;;;;;;12.45;2.35;;;;;;;10.48;100.00;101915.13;5034030;28;20083;-76
2022/06/10 02:30:34;;;;;;;12.65;2.80;;;;;;;10.59;100.00;101936.22;5051938;28;20047;-76
2022/06/10 02:33:00;;;;;;;3.80;2.47;;;;;;;10.62;100.00;101946.50;5051938;28;20028;-76
2022/06/10 02:35:35;;;;;;;10.95;2.80;;;;;;;10.53;100.00;101944.63;5051732;28;20481;-76
2022/06/10 02:38:09;;;;;;;6.47;2.15;;;;;;;10.57;100.00;101950.50;5034159;28;20021;-75
2022/06/10 02:41:01;;;;;;;8.23;3.25;;;;;;;10.51;100.00;101957.09;5033888;28;20090;-75
2022/06/10 02:43:42;;;;;;;10.07;2.67;;;;;;;10.46;100.00;101959.28;5049222;28;20119;-75
2022/06/10 02:46:16;;;;;;;8.70;2.60;;;;;;;10.40;100.00;101949.19;5052498;28;20032;-74
2022/06/10 02:49:00;;;;;;;9.55;2.70;;;;;;;10.34;100.00;101947.88;5052879;28;20029;-74
2022/06/10 02:51:28;;;;;;;7.90;2.85;;;;;;;10.27;100.00;101952.78;5020622;28;20034;-74
2022/06/10 02:53:53;;;;;;;6.57;2.70;;;;;;;10.23;100.00;101948.69;5033756;28;20512;-74
2022/06/10 02:56:22;;;;;;;8.77;3.08;;;;;;;10.21;100.00;101955.91;5043572;28;20352;-75
2022/06/10 03:02:01;;;;;;;7.70;2.95;;;;;;;10.15;100.00;101955.53;5070149;28;20589;-75
2022/06/10 03:04:44;;;;;;;10.50;3.55;;;;;;;10.08;100.00;101950.75;5071006;28;20435;-75
2022/06/10 03:07:21;;;;;;;8.10;2.97;;;;;;;10.02;100.00;101953.03;5068768;28;20073;-75
2022/06/10 03:10:15;;;;;;;10.13;3.50;;;;;;;9.99;100.00;101963.81;5071496;28;20028;-75
2022/06/10 03:12:52;;;;;;;6.30;3.20;;;;;;;9.77;100.00;101933.81;5067115;28;20032;-74
2022/06/10 03:15:42;;;;;;;9.15;3.83;;;;;;;9.85;100.00;101962.25;5060119;28;20032;-75
2022/06/10 03:18:31;;;;;;;6.38;3.58;;;;;;;9.75;100.00;101964.72;5070294;28;20029;-74
2022/06/10 03:21:07;;;;;;;15.70;3.92;;;;;;;9.75;100.00;101959.44;5066939;28;20036;-74
2022/06/10 03:24:04;;;;;;;11.27;3.78;;;;;;;9.74;100.00;101963.06;5068598;28;20020;-74
2022/06/10 03:26:52;;;;;;;9.65;3.90;;;;;;;9.75;100.00;101967.38;5069595;28;20028;-74
2022/06/10 03:29:38;;;;;;;7.70;3.45;;;;;;;9.62;100.00;101948.16;5070986;28;20027;-74
2022/06/10 03:32:15;;;;;;;10.85;3.58;;;;;;;9.79;100.00;101966.19;5069133;28;20008;-74
2022/06/10 03:34:51;;;;;;;13.50;3.17;;;;;;;9.80;100.00;101973.16;5071316;28;20074;-74
2022/06/10 03:37:19;;;;;;;10.27;3.70;;;;;;;9.82;100.00;101973.88;5069250;28;20380;-74
2022/06/10 03:39:56;;;;;;;6.30;3.40;;;;;;;9.81;100.00;101972.16;5070683;28;20415;-74
2022/06/10 03:42:24;;;;;;;7.40;3.60;;;;;;;9.81;100.00;101974.81;5085563;28;20020;-74
2022/06/10 03:44:53;;;;;;;7.53;3.55;;;;;;;9.71;100.00;101959.81;5069225;28;20095;-74
2022/06/10 03:47:25;;;;;;;9.75;3.00;;;;;;;9.82;100.00;101973.00;5086559;28;20762;-74
2022/06/10 03:50:00;;;;;;;11.98;3.30;;;;;;;9.76;100.00;101955.88;5067488;28;20425;-74
2022/06/10 03:52:29;;;;;;;7.80;3.88;;;;;;;9.85;100.00;101960.44;5084715;28;20024;-74
2022/06/10 03:54:54;;;;;;;6.70;3.65;;;;;;;9.95;100.00;101967.63;5069898;28;20032;-74
2022/06/10 03:57:20;;;;;;;9.38;3.58;;;;;;;9.96;100.00;101966.69;5067329;28;20115;-74
2022/06/10 03:59:46;;;;;;;10.23;3.35;;;;;;;9.98;100.00;101970.06;5050947;28;20040;-74
2022/06/10 04:02:11;;;;;;;9.48;3.90;;;;;;;9.93;100.00;101956.34;5047084;28;20040;-74
2022/06/10 04:04:38;;;;;;;6.70;3.28;;;;;;;9.88;100.00;101954.91;5015499;28;20033;-74
2022/06/10 04:07:04;;;;;;;10.60;3.83;;;;;;;10.04;100.00;101977.50;5047383;28;20024;-74
2022/06/10 04:09:30;;;;;;;8.88;3.33;;;;;;;10.07;100.00;101975.44;5048411;28;20223;-74
2022/06/10 04:11:55;;;;;;;5.50;3.00;;;;;;;10.19;100.00;101973.66;5031470;28;20179;-73
2022/06/10 04:14:21;;;;;;;9.70;3.40;;;;;;;10.23;100.00;101969.78;5032310;28;20075;-74
2022/06/10 04:16:46;;;;;;;8.43;3.03;;;;;;;10.36;100.00;101974.16;5030292;28;20504;-74
2022/06/10 04:19:13;;;;;;;8.73;3.67;;;;;;;10.44;100.00;101967.31;5049920;28;20023;-74
2022/06/10 04:21:38;;;;;;;7.03;2.80;;;;;;;10.42;100.00;101950.75;5031052;28;20115;-74
2022/06/10 04:24:04;;;;;;;12.50;3.05;;;;;;;10.60;100.00;101976.66;5013716;28;20123;-74
2022/06/10 04:26:29;;;;;;;4.50;2.78;;;;;;;10.69;100.00;101974.13;5048065;28;20396;-75
2022/06/10 04:28:55;;;;;;;10.65;3.55;;;;;;;10.77;100.00;101975.31;5029645;28;20072;-74
2022/06/10 04:31:20;;;;;;;8.73;2.97;;;;;;;10.84;100.00;101976.47;5013986;28;20032;-74
2022/06/10 04:33:46;;;;;;;10.80;4.32;;;;;;;10.88;100.00;101977.91;5048452;28;20025;-74
2022/06/10 04:36:16;;;;;;;7.53;3.22;;;;;;;10.86;100.00;101966.63;5047603;28;20052;-74
2022/06/10 04:38:41;;;;;;;7.85;3.20;;;;;;;10.99;100.00;101977.88;5048061;28;20029;-74
2022/06/10 04:41:07;;;;;;;15.30;2.97;;;;;;;10.93;100.00;101954.63;5048178;28;20417;-74
2022/06/10 04:43:34;;;;;;;8.90;3.35;;;;;;;11.16;100.00;101971.22;5012369;28;20106;-74
2022/06/10 04:46:02;;;;;;;16.38;2.92;;;;;;;11.25;100.00;101982.81;5048192;28;20492;-74
2022/06/10 04:48:28;;;;;;;7.82;2.72;;;;;;;11.35;100.00;101973.19;5029479;28;20024;-74
2022/06/10 04:50:53;;;;;;;12.25;2.90;;;;;;;11.36;100.00;101958.97;5044799;28;20035;-74
2022/06/10 04:53:19;;;;;;;9.40;3.00;;;;;;;11.57;100.00;101969.56;5012521;28;20136;-74
2022/06/10 04:55:45;;;;;;;6.32;2.70;;;;;;;11.78;100.00;101969.59;5029172;28;20047;-74
2022/06/10 04:58:12;;;;;;;10.55;3.03;;;;;;;12.02;100.00;101971.97;5043999;28;20037;-74
2022/06/10 05:00:42;;;;;;;14.05;2.72;;;;;;;12.26;100.00;101974.31;5042937;28;20025;-76
2022/06/10 05:03:08;;;;;;;9.10;2.67;;;;;;;12.42;100.00;101980.91;5044720;28;20025;-74
2022/06/10 05:05:34;;;;;;;9.02;2.42;;;;;;;12.58;99.72;101973.28;5027081;28;20048;-73
2022/06/10 05:08:00;;;;;;;8.40;2.60;;;;;;;12.77;98.45;101977.78;5027326;28;20221;-75
2022/06/10 05:10:27;;;;;;;9.25;2.58;;;;;;;12.76;97.70;101955.75;5027428;28;20037;-74
2022/06/10 05:12:52;;;;;;;7.65;2.35;;;;;;;13.10;97.73;101979.19;5026733;28;20044;-74
2022/06/10 05:15:20;;;;;;;12.05;3.17;;;;;;;13.20;96.19;101984.53;5042812;28;20302;-75
2022/06/10 05:17:46;;;;;;;5.47;2.60;;;;;;;13.36;95.93;101984.00;5023803;28;20028;-75
2022/06/10 05:20:17;;;;;;;11.77;2.38;;;;;;;13.50;95.85;101980.06;5041768;28;20032;-75
2022/06/10 05:22:42;;;;;;;8.98;2.42;;;;;;;13.46;94.92;101960.13;5025569;28;20105;-75
2022/06/10 05:25:08;;;;;;;11.90;3.30;;;;;;;13.35;95.19;101955.81;5042955;28;20032;-75
2022/06/10 05:27:34;;;;;;;6.97;2.13;;;;;;;13.47;95.56;101973.22;5019677;28;20098;-75
2022/06/10 05:29:59;;;;;;;8.50;2.75;;;;;;;13.46;96.15;101962.78;4990704;28;20074;-74
2022/06/10 05:32:25;;;;;;;7.38;2.53;;;;;;;13.58;96.59;101973.06;5024760;28;20596;-75
2022/06/10 05:34:50;;;;;;;10.43;2.83;;;;;;;13.77;96.75;101971.38;5041213;28;20626;-74
2022/06/10 05:37:19;;;;;;;9.90;2.72;;;;;;;13.81;96.75;101962.16;5024033;28;20033;-74
2022/06/10 05:39:44;;;;;;;8.00;2.45;;;;;;;13.77;96.11;101974.84;5037306;28;20539;-74
2022/06/10 05:42:11;;;;;;;8.65;2.40;;;;;;;13.79;96.37;101978.19;5001955;28;20028;-74
2022/06/10 05:44:42;;;;;;;13.13;3.08;;;;;;;13.83;96.33;101970.81;5022780;28;20033;-74
2022/06/10 05:47:09;;;;;;;;;;;;;;;13.94;95.57;101975.94;5044151;28;20025;-74
2022/06/10 05:49:37;;;;;;;11.55;3.35;;;;;;;13.95;95.19;101964.31;5029025;28;20307;-74
2022/06/10 05:52:04;;;;;;;16.55;4.75;;;;;;;13.99;95.74;101960.41;5023988;28;20025;-74
2022/06/10 05:54:30;;;;;;;7.55;2.30;;;;;;;14.18;95.70;101974.59;5046823;28;20496;-74
2022/06/10 05:56:55;;;;;;;7.93;2.63;;;;;;;14.22;95.58;101986.59;5028945;28;20052;-74
2022/06/10 05:59:22;;;;;;;18.33;2.85;;;;;;;14.07;95.50;101967.66;5047018;28;20078;-74
2022/06/10 06:01:48;;;;;;;5.38;2.08;;;;;;;14.19;96.14;101982.38;5065905;28;20450;-74
2022/06/10 06:04:13;;;;;;;11.10;2.78;;;;;;;14.23;95.69;101963.53;5064787;28;20032;-74
2022/06/10 06:06:40;;;;;;;11.02;2.67;;;;;;;14.40;95.78;101979.50;5047421;28;20028;-74
2022/06/10 06:09:05;;;;;;;11.57;2.60;;;;;;;14.45;95.27;101964.97;5065463;28;20036;-74
2022/06/10 06:11:31;;;;;;;8.43;2.08;;;;;;;14.60;94.81;101985.59;5066676;28;20105;-74
2022/06/10 06:13:58;;;;;;;8.88;2.38;;;;;;;14.76;94.94;101984.09;5069320;28;20035;-74
2022/06/10 06:16:24;;;;;;;12.50;3.10;;;;;;;14.92;94.63;101989.59;5068995;28;20028;-74
2022/06/10 06:18:51;;;;;;;12.07;2.30;;;;;;;14.87;93.45;101964.44;5050760;28;20388;-74
2022/06/10 06:21:17;;;;;;;8.60;2.00;;;;;;;15.07;92.60;101981.06;5068861;28;20391;-74
2022/06/10 06:23:42;;;;;;;9.38;2.42;;;;;;;15.01;90.89;101988.69;5067461;28;20043;-74
2022/06/10 06:26:13;;;;;;;11.02;2.30;;;;;;;15.01;90.85;101980.72;5070562;28;20237;-74
2022/06/10 06:28:38;;;;;;;12.07;3.28;;;;;;;15.03;90.45;101991.19;5064688;28;20028;-74
2022/06/10 06:31:04;;;;;;;9.85;2.25;;;;;;;15.15;90.57;102000.59;5069389;28;20626;-76
2022/06/10 06:33:29;;;;;;;12.38;2.63;;;;;;;15.34;91.05;101993.47;5069018;28;20028;-74
2022/06/10 06:35:55;;;;;;;8.20;2.70;;;;;;;15.58;89.54;101996.31;5067847;28;20036;-74
2022/06/10 06:38:22;;;;;;;13.43;2.95;;;;;;;15.71;88.62;102001.25;5067629;28;20029;-74
2022/06/10 06:40:48;;;;;;;11.95;3.05;;;;;;;15.90;88.11;102000.25;5069331;28;20056;-74
2022/06/10 06:43:13;;;;;;;7.63;2.95;;;;;;;16.00;87.85;102006.28;5068699;28;20082;-74
2022/06/10 06:45:40;;;;;;;7.20;2.45;;;;;;;15.95;87.40;102003.25;5068760;28;20103;-74
2022/06/10 06:48:09;;;;;;;7.05;2.10;;;;;;;16.22;87.02;102004.06;5068735;28;20070;-74
2022/06/10 06:50:39;;;;;;;8.60;2.75;;;;;;;16.27;87.09;102000.94;5085062;28;20032;-73
2022/06/10 06:53:04;;;;;;;12.82;2.80;;;;;;;16.22;87.04;101998.72;5068134;28;20032;-73
2022/06/10 06:55:30;;;;;;;8.05;2.10;;;;;;;16.31;86.48;102011.13;5049883;28;20784;-73
2022/06/10 06:57:55;;;;;;;10.60;2.53;;;;;;;16.54;86.61;102014.03;5052388;28;20036;-73
2022/06/10 07:00:22;;;;;;;10.10;2.85;;;;;;;16.59;87.27;102018.88;5064200;28;20037;-73
2022/06/10 07:02:47;;;;;;;12.05;3.00;;;;;;;16.74;88.06;102011.94;5068767;28;20368;-74
2022/06/10 07:05:13;;;;;;;15.98;3.08;;;;;;;16.41;88.19;102014.47;5066738;28;20750;-74
2022/06/10 07:07:42;;;;;;;11.93;3.15;;;;;;;16.23;89.09;102016.41;5069119;28;20385;-74
2022/06/10 07:10:10;;;;;;;9.63;3.55;;;;;;;16.18;90.12;102018.72;5068855;28;20032;-75
2022/06/10 07:12:35;;;;;;;6.80;2.50;;;;;;;16.30;90.14;102020.09;5069141;28;20391;-73
2022/06/10 07:15:01;;;;;;;8.07;3.67;;;;;;;16.44;90.20;102027.50;5041208;28;20032;-74
2022/06/10 07:17:27;;;;;;;10.10;2.88;;;;;;;16.10;89.76;102016.81;5068471;28;20382;-73
2022/06/10 07:19:54;;;;;;;12.00;3.17;;;;;;;16.01;91.87;102013.28;5051207;28;20046;-73
2022/06/10 07:22:19;;;;;;;11.95;3.20;;;;;;;15.75;93.67;102015.94;5067623;28;20077;-73
2022/06/10 07:24:45;;;;;;;11.32;3.50;;;;;;;15.75;95.51;102041.72;5068543;28;20033;-74
2022/06/10 07:27:11;;;;;;;11.65;3.30;;;;;;;15.69;97.38;102031.66;5067873;28;20413;-73
2022/06/10 07:29:37;;;;;;;14.65;3.67;;;;;;;15.95;96.78;102034.38;5069108;28;20099;-74
2022/06/10 07:32:03;;;;;;;17.95;4.20;;;;;;;16.18;96.28;102026.72;5064933;28;20398;-74
2022/06/10 07:34:28;;;;;;;11.10;3.83;;;;;;;16.27;95.57;102027.59;5070309;28;20024;-74
2022/06/10 07:36:53;;;;;;;8.27;3.95;;;;;;;16.41;94.97;102027.78;5064137;28;20025;-74
2022/06/10 07:39:19;;;;;;;9.63;3.30;;;;;;;16.82;95.21;102033.31;5064048;28;20040;-73
2022/06/10 07:42:02;;;;;;;11.98;4.15;;;;;;;16.94;92.62;102033.00;5067267;28;20038;-74
2022/06/10 07:44:38;;;;;;;14.63;4.97;;;;;;;17.16;92.14;102037.75;5064687;28;20272;-74
2022/06/10 07:47:07;;;;;;;14.68;3.72;;;;;;;17.11;90.58;102048.03;5067737;28;20039;-73
2022/06/10 07:49:33;;;;;;;6.53;2.83;;;;;;;16.89;91.95;102028.16;5066774;28;20016;-71
2022/06/10 07:51:59;;;;;;;11.27;3.28;;;;;;;17.07;90.99;102033.38;5056602;28;20041;-73
2022/06/10 07:54:25;;;;;;;11.15;3.75;;;;;;;16.71;90.28;102020.25;5032520;28;20067;-74
2022/06/10 07:56:52;;;;;;;11.73;3.38;;;;;;;16.76;91.44;102025.09;5054604;28;20024;-73
2022/06/10 07:59:18;;;;;;;8.98;3.58;;;;;;;16.55;91.85;102034.38;5051909;28;20037;-74
2022/06/10 08:01:44;;;;;;;9.98;3.63;;;;;;;16.50;92.46;102020.66;5050302;28;20009;-74
2022/06/10 08:04:09;;;;;;;10.55;3.55;;;;;;;16.61;93.08;102030.22;5057210;28;20404;-74
2022/06/10 08:06:40;;;;;;;10.52;4.28;;;;;;;16.72;92.74;102013.91;5038303;28;20025;-74
2022/06/10 08:09:06;;;;;;;10.43;3.67;;;;;;;16.60;92.74;102031.22;5054749;28;20029;-73
2022/06/10 08:11:32;;;;;;;10.50;3.15;;;;;;;16.79;92.50;102028.28;5068556;28;20025;-73
2022/06/10 08:13:58;;;;;;;11.07;3.33;;;;;;;17.01;92.82;102031.38;5082867;28;20389;-73
2022/06/10 08:16:23;;;;;;;6.38;3.55;;;;;;;16.94;92.02;102030.34;5068550;28;20039;-73
2022/06/10 08:18:49;;;;;;;8.88;4.25;;;;;;;17.12;91.38;102024.91;5084945;28;20115;-73
2022/06/10 08:22:32;;;;;;;6.97;3.47;;;;;;;17.19;91.15;102026.72;5067238;28;20492;-73
2022/06/10 08:24:15;;;;;;;7.37;3.30;;;;;;;17.32;89.84;102030.75;5067931;28;20684;-74
2022/06/10 08:26:41;;;;;;;7.70;3.75;;;;;;;17.14;90.56;102034.41;5067379;28;20043;-74
2022/06/10 08:29:07;;;;;;;8.68;3.20;;;;;;;17.15;91.34;102029.91;5066444;28;20484;-73
2022/06/10 08:31:33;;;;;;;13.32;3.63;;;;;;;17.17;91.33;102031.38;5068499;28;20472;-73
2022/06/10 08:33:59;;;;;;;10.05;3.58;;;;;;;17.35;91.58;102044.56;5066656;28;20453;-73
2022/06/10 08:36:24;;;;;;;7.70;3.50;;;;;;;17.19;90.45;102039.25;5065465;28;20079;-73
2022/06/10 08:38:51;;;;;;;9.18;4.35;;;;;;;16.91;92.31;102042.19;5064071;28;20035;-73
2022/06/10 08:41:48;;;;;;;10.27;3.47;;;;;;;16.91;92.34;102038.69;5048825;28;20044;-73
2022/06/10 08:44:24;;;;;;;8.85;3.17;;;;;;;17.03;93.07;102040.88;5067068;28;20043;-73
2022/06/10 08:47:06;;;;;;;8.73;4.20;;;;;;;17.00;91.67;102037.69;5067623;28;20107;-73
2022/06/10 08:50:06;;;;;;;9.38;3.83;;;;;;;16.89;92.98;102033.50;5067057;28;20028;-73
2022/06/10 08:52:31;;;;;;;8.05;3.70;;;;;;;16.70;93.68;102039.06;5066992;28;20028;-73
2022/06/10 08:55:17;;;;;;;5.38;3.40;;;;;;;16.77;94.84;102032.13;5083039;28;20047;-73
2022/06/10 08:57:47;;;;;;;7.78;3.78;;;;;;;16.64;95.64;102009.41;5053607;28;20497;-73
2022/06/10 09:00:24;;;;;;;10.50;3.83;;;;;;;16.76;94.26;102033.94;5019421;28;20072;-73
2022/06/10 09:03:01;;;;;;;7.30;3.25;;;;;;;16.73;95.06;102022.78;5032095;28;20025;-74
2022/06/10 09:05:34;;;;;;;7.07;3.40;;;;;;;16.76;93.88;102015.25;5031870;28;20032;-73
2022/06/10 09:08:05;;;;;;;8.35;3.60;;;;;;;16.93;94.30;102032.19;5034520;28;20116;-73
2022/06/10 09:10:49;;;;;;;7.70;3.75;;;;;;;17.22;93.95;102028.22;5029862;28;20385;-75
2022/06/10 09:13:30;;;;;;;7.40;4.43;;;;;;;17.23;93.49;102041.41;5016649;28;20079;-74
2022/06/10 09:15:55;;;;;;;;;;;;;;;17.47;93.57;102045.09;5029893;28;20021;-74
2022/06/10 09:18:31;;;;;;;7.23;4.20;;;;;;;17.54;92.30;102039.94;5014322;28;20293;-74
2022/06/10 09:21:06;;;;;;;13.02;5.50;;;;;;;17.46;92.64;102033.59;5012303;28;20639;-74
2022/06/10 09:23:38;;;;;;;8.20;3.70;;;;;;;17.39;93.47;102026.41;5015826;28;20021;-74
2022/06/10 09:26:09;;;;;;;7.72;4.25;;;;;;;17.42;93.71;102034.06;5029361;28;20021;-74
2022/06/10 09:28:37;;;;;;;9.75;4.30;;;;;;;17.45;92.96;102037.25;5038067;28;20461;-74
2022/06/10 09:31:13;;;;;;;12.13;4.28;;;;;;;17.39;92.43;102029.91;5036308;28;20371;-74
2022/06/10 09:34:01;;;;;;;12.10;5.30;;;;;;;17.52;91.95;102031.25;5019233;28;20021;-74
2022/06/10 09:36:48;;;;;;;11.77;4.57;;;;;;;17.24;94.10;102029.72;5038912;28;20103;-74
2022/06/10 09:42:49;;;;;;;11.45;4.07;;;;;;;17.15;94.10;102014.72;5036844;28;20102;-74
2022/06/10 09:45:24;;;;;;;8.93;4.85;;;;;;;17.42;93.72;102029.59;5020092;28;20025;-74
2022/06/10 09:47:55;;;;;;;10.70;5.60;;;;;;;17.49;91.06;102019.09;5016435;28;20025;-74
2022/06/10 09:50:51;;;;;;;11.25;6.15;;;;;;;17.61;90.85;102012.38;5017368;28;20032;-74
2022/06/10 09:53:44;;;;;;;10.15;5.32;;;;;;;17.92;89.00;102016.22;5041718;28;20017;-74
2022/06/10 09:56:47;;;;;;;8.40;5.00;;;;;;;18.20;89.57;102035.34;5048321;28;20029;-75
2022/06/10 09:59:24;;;;;;;10.18;5.63;;;;;;;18.58;87.25;102040.91;5023325;28;20037;-74
2022/06/10 10:02:03;;;;;;;11.40;4.93;;;;;;;18.54;86.61;102019.03;5045282;28;20087;-75
2022/06/10 10:05:13;;;;;;;13.98;5.32;;;;;;;18.19;87.44;102037.19;5032053;28;20488;-75
2022/06/10 10:08:16;;;;;;;10.77;4.63;;;;;;;18.17;88.96;102036.53;4964906;28;20034;-75
2022/06/10 10:10:55;;;;;;;17.25;5.25;;;;;;;18.16;89.62;102039.38;4966377;28;20073;-75
2022/06/10 10:13:30;;;;;;;9.35;5.22;;;;;;;18.14;89.13;102044.06;4984366;28;20061;-74
2022/06/10 10:16:07;;;;;;;7.50;4.10;;;;;;;18.16;89.03;102039.38;4971231;28;20078;-74
2022/06/10 10:18:58;;;;;;;13.18;5.13;;;;;;;17.97;87.57;102041.44;4976020;28;20086;-75
2022/06/10 10:21:33;;;;;;;;;;;;;;;17.78;89.25;102044.44;4956819;28;20042;-75
2022/06/10 10:23:59;;;;;;;11.07;4.30;;;;;;;17.78;89.26;102039.91;4964007;28;20029;-75
2022/06/10 10:26:37;;;;;;;10.82;4.30;;;;;;;17.61;89.75;102038.25;4972751;28;20629;-75
2022/06/10 10:29:16;;;;;;;10.10;3.97;;;;;;;17.51;90.10;102038.44;4971843;28;20083;-74
2022/06/10 10:32:19;;;;;;;10.80;4.07;;;;;;;17.69;90.24;102044.44;4977168;28;20569;-74
2022/06/10 10:34:50;;;;;;;13.05;4.57;;;;;;;17.88;90.37;102043.28;4975039;28;20043;-74
2022/06/10 10:37:26;;;;;;;10.75;5.13;;;;;;;17.71;nan;102038.09;4971525;28;20084;-75
2022/06/10 10:39:55;;;;;;;18.95;4.50;;;;;;;17.84;90.49;102043.78;4976535;28;20148;-74
2022/06/10 10:42:23;;;;;;;12.88;4.53;;;;;;;17.96;90.07;102038.91;5027212;28;20041;-74
2022/06/10 10:45:02;;;;;;;16.00;4.50;;;;;;;18.12;89.11;102035.38;5045577;28;20040;-74
2022/06/10 10:47:28;;;;;;;11.52;4.63;;;;;;;18.09;89.54;102048.09;5044548;28;20037;-75
2022/06/10 10:50:16;;;;;;;12.32;5.97;;;;;;;18.15;88.56;102037.72;5031771;28;20123;-75
2022/06/10 10:52:44;;;;;;;10.80;4.97;;;;;;;18.36;87.16;102024.63;5030807;28;20041;-75
2022/06/10 10:55:12;;;;;;;10.57;4.75;;;;;;;18.44;86.67;102050.47;5045580;28;20112;-75
2022/06/10 10:57:43;;;;;;;13.88;4.50;;;;;;;18.74;86.80;102051.53;5042936;28;20056;-75
2022/06/10 11:00:09;;;;;;;12.88;4.65;;;;;;;18.85;84.18;102048.47;5014741;28;20080;-75
2022/06/10 11:02:37;;;;;;;9.20;4.63;;;;;;;19.03;84.36;102055.41;5044310;28;20111;-75
2022/06/10 11:05:57;;;;;;;11.25;4.63;;;;;;;19.05;83.98;102042.69;5018499;28;20037;-75
2022/06/10 11:08:26;;;;;;;16.65;5.13;;;;;;;19.27;83.05;102049.06;4964400;28;20030;-75
2022/06/10 11:10:54;;;;;;;11.95;4.95;;;;;;;19.46;82.93;102045.09;4964853;28;20043;-75
2022/06/10 11:13:44;;;;;;;10.70;4.35;;;;;;;19.19;83.50;102033.91;4964106;28;20049;-75
2022/06/10 11:16:50;;;;;;;14.50;5.47;;;;;;;19.26;83.18;102048.25;4964851;28;20064;-75
2022/06/10 11:19:39;;;;;;;11.13;4.70;;;;;;;18.95;83.93;102063.50;4938687;28;20561;-75
2022/06/10 11:22:04;;;;;;;11.98;4.88;;;;;;;19.26;84.82;102050.91;4964075;28;20054;-75
2022/06/10 11:24:35;;;;;;;9.00;4.40;;;;;;;19.12;84.15;102051.69;4964908;28;20134;-75
2022/06/10 11:27:16;;;;;;;10.55;4.30;;;;;;;19.02;84.44;102051.91;4948006;28;20022;-75
2022/06/10 11:29:43;;;;;;;10.13;5.63;;;;;;;19.21;84.30;102053.31;4946896;28;20079;-75
2022/06/10 11:32:23;;;;;;;12.05;4.22;;;;;;;18.91;84.06;102042.44;4965270;28;20039;-74
2022/06/10 11:34:58;;;;;;;6.60;4.33;;;;;;;18.61;85.98;102037.88;4964916;28;20110;-74
2022/06/10 11:37:38;;;;;;;9.40;4.80;;;;;;;19.02;84.98;102048.41;4968368;28;20027;-74
2022/06/10 11:40:12;;;;;;;13.20;4.80;;;;;;;19.17;83.74;102052.00;4948547;28;20030;-75
2022/06/10 11:42:56;;;;;;;8.43;4.65;;;;;;;19.28;83.62;102038.19;5014785;28;20041;-77
2022/06/10 11:45:30;;;;;;;10.80;4.63;;;;;;;19.42;83.56;102043.78;5046409;28;20025;-75
2022/06/10 11:48:04;;;;;;;6.93;4.05;;;;;;;19.14;83.59;102020.25;5027973;28;20033;-75
2022/06/10 11:50:29;;;;;;;8.35;4.15;;;;;;;19.16;83.58;102044.94;5045174;28;20029;-74